Terminal Aerodrome Forecast
Issued by NWS Raleigh/Durham, NC

Home | Current Version | Previous Version | Text Only | Print | Product List | Glossary On
Versions: 1 2 3 4 5 6 7 8 9 10 11 12 13 14 15 16 17 18 19 20 21 22 23 24 25 26
000
FTUS42 KRAH 231853 AAA
TAFGSO
TAF AMD
KGSO 231853Z 2319/2418 VRB03KT P6SM BKN011 OVC022
     FM232030 VRB02KT P6SM SCT020
     FM240230 VRB02KT 3SM BR SCT002 SCT028
     FM240430 VRB02KT 1/4SM FG OVC002
      TEMPO 2405/2409 1 1/2SM BR BKN003
     FM241300 19004KT P6SM BKN008
     FM241530 21005KT P6SM BKN018=

USA.gov is the U.S. government's official web portal to all federal, state and local government web resources and services.